Airfield :
LOGIN :

Register | Disclaimer

   EN    FR    IT 

 










Legend :    VFR   Marginal VFR   IFR   Intensive IFR   Very Intensive IFR
Visi :
Ceiling :
>= 8 km
>= 3000ft
5 to 8 km
1000 to 3000 ft
1500m to 5 km
500 to 1000 ft
800 to 1500m
200 to 500 ft
< 800m
< 200 ft
Symbols :   Thunderstorms  Fog  Heavy snow  Heavy precipitations  Wind > 20 kt
SIGMETs :     Misc.  Thunderstorms  Icing  Turbulence  Mountain Waves  Volcanic Ashes






- Airport Elevation : 243 ft
- IATA code : HOV


ENOV - Ørsta-Volda , Hovden

CURRENT METAR :
  • 301150Z AUTO 21006KT 140V270 9999 -SN FEW002/// SCT008/// BKN017/// 01/M02 Q0998 RMK WIND RWY24 VRB05KT WIND 2090FT 30014G30KT

EXPIRED METARs :
  • 301120Z AUTO VRB01G12KT 2200 -SN SCT002/// BKN016/// OVC023/// 01/M01 Q0998 RMK WIND RWY24 VRB04KT WIND 2090FT 30020G69KT
  • 301050Z AUTO VRB05KT 1500 -SN SCT002/// BKN031/// OVC038/// 01/M01 Q0997 RMK WIND RWY24 24008G23KT WIND 2090FT 33025G36KT
  • 301020Z AUTO VRB04G15KT 9999 -SN FEW005/// SCT017/// BKN025/// 02/M03 Q0996 RMK WIND RWY24 VRB03KT WIND 2090FT 31013G31KT
  • 300950Z VRB04G17KT 1200 SHSN VV005 02/M03 Q0995 RMK WIND RWY24 VRB05G24KT WIND 2090FT 29024G60KT
  • 300920Z 21012G23KT 180V270 4300 -SHSNGS FEW002 SCT015CB BKN023 02/M01 Q0994 RMK WIND RWY24 VRB09G22KT WIND 2090FT 32020G38KT

TAF TAF ENOV
Valid from the 30 at 12:00 until the 30 at 21:00 UTC


301100Z 3012/3021 VRB07KT 8000 -SHSNRA SCT015CB BKN030
TEMPO 3012/3021 25015G28KT 1000 SHSN VV007



MET'MAP, your aeronautical weather chart ! - Copyright ORBIFLY December 2007 - Disclaimer

ORBIFLY MET'MAP TEAM :

Programming & Development : Alexandra Zaïnal
Original concept : Baudouin d'Aumeries
Technical & hardware support : Manuel Goepfert
Assistance : Marc-Olivier Méhu




SOURCES & CREDITS :

   NOAA